Almond, New York
Current Conditions -  °F | °C
As of 1:54 PM on Sunday 23 Nov 2014 (Local Time) from KDSV Reporting Station
Broken Clouds Broken Clouds  
Wind Chill: 51°   Ceiling: 7500
Heat Index: 51°   Visibility: 10mi
Dew Point: 41°   Wind: 8mph
Humidity: 68%   Direction: 130°SE
Pressure: 29.99"   Gusts: NA
Location:  42.32°N, 77.74°W
Report Text: KDSV 231854Z AUTO 13007KT 10SM BKN075 BKN090 BKN110 11/05 A2999 RMK AO2 SLP167 T01060050
Loading
Personal Weather Stations






























Interactive Weather Map New forecast layout! Learn more

10-Day Weather Forecast

Advertisements
Track Severe Weather on mobile